createdAt,value
2022-08-03T00:00:32.606Z,2.83
2022-08-03T00:03:00.773Z,2.43
2022-08-03T00:05:28.417Z,1.73
2022-08-03T00:07:55.309Z,1.30
2022-08-03T00:10:24.204Z,1.47
2022-08-03T00:12:51.125Z,3.87
2022-08-03T00:15:19.559Z,1.90
2022-08-03T00:17:53.553Z,2.80
2022-08-03T00:20:22.209Z,1.70
2022-08-03T00:22:50.632Z,2.70
2022-08-03T00:25:18.670Z,1.90
2022-08-03T00:27:46.273Z,2.27
2022-08-03T00:30:16.983Z,2.97
2022-08-03T00:32:45.643Z,2.00
2022-08-03T00:35:26.640Z,2.30
2022-08-03T00:38:01.430Z,2.50
2022-08-03T00:40:29.257Z,1.33
2022-08-03T00:43:02.278Z,2.20
2022-08-03T00:45:35.298Z,1.90
2022-08-03T00:48:03.748Z,2.80
2022-08-03T00:50:35.154Z,2.03
2022-08-03T00:53:05.869Z,3.07
2022-08-03T00:55:34.097Z,3.27
2022-08-03T00:58:05.086Z,3.27
2022-08-03T01:00:32.568Z,3.10
2022-08-03T01:03:00.191Z,2.00
2022-08-03T01:05:27.931Z,2.00
2022-08-03T01:08:27.119Z,2.87
2022-08-03T01:11:19.225Z,2.03
2022-08-03T01:14:18.562Z,2.90
2022-08-03T01:16:53.054Z,3.13
2022-08-03T01:19:38.459Z,3.47
2022-08-03T01:22:44.044Z,2.43
2022-08-03T01:25:32.822Z,2.23
2022-08-03T01:28:53.428Z,3.57
2022-08-03T01:32:54.581Z,2.73
2022-08-03T01:34:43.962Z,4.27
2022-08-03T01:37:14.634Z,3.03
2022-08-03T01:39:45.466Z,3.63
2022-08-03T01:42:15.197Z,5.20
2022-08-03T01:44:45.267Z,4.33
2022-08-03T01:47:15.799Z,3.57
2022-08-03T01:49:45.610Z,4.77
2022-08-03T01:52:17.821Z,2.60
2022-08-03T01:54:49.420Z,3.07
2022-08-03T01:57:18.859Z,3.17
2022-08-03T01:59:49.770Z,2.40
2022-08-03T02:02:33.506Z,2.13
2022-08-03T02:05:05.121Z,4.20
2022-08-03T02:07:41.888Z,1.53
2022-08-03T02:10:11.943Z,1.73
2022-08-03T02:12:44.668Z,2.10
2022-08-03T02:15:15.307Z,3.33
2022-08-03T02:17:44.965Z,1.40
2022-08-03T02:20:13.947Z,1.60
2022-08-03T02:22:44.669Z,2.47
2022-08-03T02:25:13.784Z,1.83
2022-08-03T02:27:48.055Z,0.73
2022-08-03T02:30:15.922Z,1.40
2022-08-03T02:32:53.062Z,2.33
2022-08-03T02:35:22.448Z,1.93
2022-08-03T02:37:54.659Z,2.37
2022-08-03T02:40:24.615Z,2.17
2022-08-03T02:42:56.327Z,1.43
2022-08-03T02:45:25.919Z,1.20
2022-08-03T02:47:58.193Z,1.97
2022-08-03T02:50:28.766Z,1.60
2022-08-03T02:52:58.483Z,2.23
2022-08-03T02:55:27.376Z,0.60
2022-08-03T02:57:57.099Z,2.00
2022-08-03T03:00:31.235Z,1.93
2022-08-03T03:03:14.205Z,1.93
2022-08-03T03:05:54.448Z,2.40
2022-08-03T03:08:26.011Z,0.80
2022-08-03T03:10:57.116Z,2.13
2022-08-03T03:13:25.917Z,1.43
2022-08-03T03:15:56.662Z,1.30
2022-08-03T03:18:25.161Z,2.03
2022-08-03T03:20:54.045Z,1.63
2022-08-03T03:23:22.769Z,1.13
2022-08-03T03:25:51.461Z,1.17
2022-08-03T03:28:18.730Z,0.77
2022-08-03T03:30:53.079Z,0.90
2022-08-03T03:33:21.758Z,1.90
2022-08-03T03:35:50.266Z,1.47
2022-08-03T03:38:18.747Z,1.87
2022-08-03T03:40:47.592Z,0.90
2022-08-03T03:43:15.298Z,1.57
2022-08-03T03:45:43.295Z,1.30
2022-08-03T03:48:11.187Z,1.87
2022-08-03T03:50:41.789Z,1.43
2022-08-03T03:53:11.300Z,1.40
2022-08-03T03:55:58.984Z,1.37
2022-08-03T03:58:26.862Z,1.43
2022-08-03T04:00:54.042Z,1.00
2022-08-03T04:03:21.234Z,1.53
2022-08-03T04:06:07.929Z,2.00
2022-08-03T04:08:53.326Z,1.33
2022-08-03T04:11:29.250Z,1.43
2022-08-03T04:14:19.262Z,2.63
2022-08-03T04:16:50.981Z,1.07
2022-08-03T04:19:45.008Z,5.30
2022-08-03T04:22:18.742Z,1.83
2022-08-03T04:24:53.727Z,2.67
2022-08-03T04:27:26.271Z,1.67
2022-08-03T04:29:57.008Z,0.93
2022-08-03T04:32:28.707Z,2.53
2022-08-03T04:34:57.278Z,1.40
2022-08-03T04:37:43.220Z,1.00
2022-08-03T04:40:14.778Z,2.07
2022-08-03T04:42:43.841Z,1.00
2022-08-03T04:45:16.486Z,3.80
2022-08-03T04:47:44.574Z,1.43
2022-08-03T04:50:16.976Z,2.97
2022-08-03T04:52:49.021Z,1.73
2022-08-03T04:55:30.598Z,3.90
2022-08-03T04:57:59.619Z,0.80
2022-08-03T05:00:28.906Z,1.83
2022-08-03T05:02:57.164Z,2.17
2022-08-03T05:05:24.985Z,1.50
2022-08-03T05:07:51.921Z,2.93
2022-08-03T05:10:21.360Z,1.13
2022-08-03T05:12:51.642Z,2.47
2022-08-03T05:15:20.477Z,1.53
2022-08-03T05:17:47.424Z,2.53
2022-08-03T05:20:18.106Z,1.13
2022-08-03T05:22:47.387Z,2.70
2022-08-03T05:25:19.844Z,2.40
2022-08-03T05:27:49.135Z,2.47
2022-08-03T05:30:32.413Z,2.10
2022-08-03T05:33:04.351Z,1.60
2022-08-03T05:35:55.738Z,1.50
2022-08-03T05:38:24.140Z,2.57
2022-08-03T05:41:21.060Z,1.70
2022-08-03T05:43:46.036Z,2.33
2022-08-03T05:46:13.704Z,2.40
2022-08-03T05:48:41.478Z,3.03
2022-08-03T05:51:13.818Z,1.80
2022-08-03T05:53:43.017Z,2.40
2022-08-03T05:56:13.800Z,2.53
2022-08-03T05:58:45.594Z,0.90
2022-08-03T06:01:15.167Z,1.37
2022-08-03T06:03:42.642Z,1.67
2022-08-03T06:06:11.610Z,1.77
2022-08-03T06:08:39.425Z,1.47
2022-08-03T06:11:08.838Z,3.27
2022-08-03T06:13:36.742Z,1.00
2022-08-03T06:16:05.509Z,0.97
2022-08-03T06:18:32.532Z,1.83
2022-08-03T06:21:11.062Z,1.83
2022-08-03T06:23:53.290Z,2.70
2022-08-03T06:26:25.041Z,2.40
2022-08-03T06:28:54.438Z,1.40
2022-08-03T06:31:26.100Z,3.43
2022-08-03T06:34:31.540Z,1.60
2022-08-03T06:36:57.436Z,2.40
2022-08-03T06:39:28.590Z,0.60
2022-08-03T06:41:56.755Z,0.60
2022-08-03T06:44:23.705Z,1.47
2022-08-03T06:46:51.869Z,0.97
2022-08-03T06:49:19.472Z,1.60
2022-08-03T06:52:37.069Z,2.05
2022-08-03T06:54:36.535Z,1.23
2022-08-03T06:57:04.704Z,1.07
2022-08-03T07:00:09.187Z,1.03
2022-08-03T07:02:20.401Z,2.10
2022-08-03T07:04:49.026Z,0.77
2022-08-03T07:07:17.842Z,1.00
2022-08-03T07:09:56.468Z,1.17
2022-08-03T07:12:30.027Z,1.37
2022-08-03T07:15:01.332Z,0.67
2022-08-03T07:17:32.994Z,0.70
2022-08-03T07:20:01.592Z,0.80
2022-08-03T07:22:30.049Z,1.47
2022-08-03T07:24:58.013Z,1.90
2022-08-03T07:27:27.106Z,0.90
2022-08-03T07:29:55.481Z,0.90
2022-08-03T07:32:24.800Z,1.80
2022-08-03T07:34:54.778Z,1.13
2022-08-03T07:37:26.914Z,0.82
2022-08-03T07:39:53.848Z,1.77
2022-08-03T07:42:21.481Z,1.83
2022-08-03T07:44:49.094Z,1.23
2022-08-03T07:47:24.162Z,1.90
2022-08-03T07:49:52.166Z,1.90
2022-08-03T07:52:37.906Z,1.42
2022-08-03T07:55:10.076Z,1.85
2022-08-03T07:57:37.909Z,0.98
2022-08-03T08:00:12.540Z,1.52
2022-08-03T08:02:41.550Z,2.50
2022-08-03T08:05:11.018Z,2.35
2022-08-03T08:07:38.730Z,1.45
2022-08-03T08:10:10.263Z,1.10
2022-08-03T08:12:40.101Z,0.90
2022-08-03T08:15:09.570Z,0.80
2022-08-03T08:17:54.157Z,2.17
2022-08-03T08:20:44.562Z,0.80
2022-08-03T08:23:37.726Z,2.72
2022-08-03T08:26:02.049Z,0.70
2022-08-03T08:28:33.562Z,1.77
2022-08-03T08:31:02.669Z,1.15
2022-08-03T08:33:48.091Z,1.52
2022-08-03T08:36:19.027Z,0.95
2022-08-03T08:38:46.627Z,1.00
2022-08-03T08:41:14.933Z,2.83
2022-08-03T08:43:43.793Z,1.85
2022-08-03T08:46:22.794Z,3.17
2022-08-03T08:48:53.268Z,4.32
2022-08-03T08:51:22.737Z,1.40
2022-08-03T08:53:53.790Z,0.88
2022-08-03T08:56:25.641Z,1.20
2022-08-03T08:59:00.205Z,2.15
2022-08-03T09:01:28.737Z,1.50
2022-08-03T09:03:56.404Z,1.17
2022-08-03T09:06:25.126Z,0.70
2022-08-03T09:08:53.400Z,0.80
2022-08-03T09:11:51.401Z,1.20
2022-08-03T09:14:36.933Z,0.70
2022-08-03T09:17:03.335Z,1.25
2022-08-03T09:19:32.720Z,2.78
2022-08-03T09:22:18.614Z,0.98
2022-08-03T09:25:23.898Z,1.38
2022-08-03T09:27:52.430Z,1.35
2022-08-03T09:30:33.620Z,1.02
2022-08-03T09:33:04.767Z,3.15
2022-08-03T09:35:53.018Z,4.45
2022-08-03T09:38:27.390Z,1.73
2022-08-03T09:41:00.327Z,1.23
2022-08-03T09:43:45.652Z,0.73
2022-08-03T09:46:14.002Z,1.63
2022-08-03T09:48:43.617Z,1.70
2022-08-03T09:52:24.737Z,1.67
2022-08-03T09:54:03.899Z,2.92
2022-08-03T09:56:46.858Z,1.98
2022-08-03T09:59:28.297Z,2.95
2022-08-03T10:01:58.358Z,2.50
2022-08-03T10:04:27.178Z,1.40
2022-08-03T10:07:04.375Z,1.80
2022-08-03T10:09:33.028Z,1.55
2022-08-03T10:12:09.235Z,1.92
2022-08-03T10:14:44.976Z,1.77
2022-08-03T10:17:11.981Z,1.50
2022-08-03T10:19:41.123Z,1.50
2022-08-03T10:22:19.724Z,1.05
2022-08-03T10:24:59.843Z,1.08
2022-08-03T10:27:32.506Z,1.48
2022-08-03T10:30:04.979Z,2.20
2022-08-03T10:32:43.781Z,1.20
2022-08-03T10:35:21.075Z,1.60
2022-08-03T10:38:10.410Z,1.30
2022-08-03T10:40:48.554Z,1.20
2022-08-03T10:43:21.840Z,2.20
2022-08-03T10:45:51.321Z,2.08
2022-08-03T10:48:20.598Z,1.60
2022-08-03T10:50:50.717Z,1.92
2022-08-03T10:53:38.831Z,1.38
2022-08-03T10:56:49.460Z,3.20
2022-08-03T10:59:47.191Z,1.65
2022-08-03T11:02:16.300Z,1.95
2022-08-03T11:04:47.170Z,0.68
2022-08-03T11:07:25.535Z,1.10
2022-08-03T11:09:54.461Z,2.08
2022-08-03T11:12:30.393Z,0.73
2022-08-03T11:15:08.659Z,1.35
2022-08-03T11:17:55.647Z,2.45
2022-08-03T11:20:46.391Z,1.25
2022-08-03T11:23:15.755Z,2.17
2022-08-03T11:26:16.539Z,1.75
2022-08-03T11:28:47.814Z,1.10
2022-08-03T11:31:49.783Z,1.83
2022-08-03T11:34:18.094Z,0.98
2022-08-03T11:37:22.463Z,2.28
2022-08-03T11:39:53.066Z,1.58
2022-08-03T11:42:23.836Z,1.88
2022-08-03T11:44:52.895Z,3.08
2022-08-03T11:47:22.713Z,3.03
2022-08-03T11:49:53.966Z,1.65
2022-08-03T11:52:27.018Z,2.15
2022-08-03T11:54:56.877Z,1.25
2022-08-03T11:59:01.068Z,2.35
2022-08-03T12:00:30.271Z,2.53
2022-08-03T12:03:05.544Z,2.45
2022-08-03T12:05:39.191Z,1.20
2022-08-03T12:08:09.513Z,3.05
2022-08-03T12:10:39.252Z,1.35
2022-08-03T12:14:44.868Z,4.22
2022-08-03T12:16:01.179Z,1.52
2022-08-03T12:18:29.626Z,1.48
2022-08-03T12:21:07.486Z,10.43
2022-08-03T12:23:38.140Z,1.83
2022-08-03T12:26:08.893Z,1.00
2022-08-03T12:28:38.532Z,1.85
2022-08-03T12:31:09.451Z,2.70
2022-08-03T12:34:02.877Z,4.55
2022-08-03T12:36:35.161Z,1.20
2022-08-03T12:39:06.309Z,3.97
2022-08-03T12:41:39.847Z,1.77
2022-08-03T12:44:09.658Z,2.63
2022-08-03T12:46:45.593Z,1.35
2022-08-03T12:49:18.790Z,1.67
2022-08-03T12:51:47.133Z,0.90
2022-08-03T12:54:24.339Z,1.45
2022-08-03T12:57:10.326Z,1.80
2022-08-03T12:59:53.415Z,3.10
2022-08-03T13:02:26.612Z,2.90
2022-08-03T13:04:55.713Z,2.67
2022-08-03T13:07:23.664Z,1.65
2022-08-03T13:09:55.101Z,2.30
2022-08-03T13:12:25.239Z,1.23
2022-08-03T13:14:59.531Z,0.93
2022-08-03T13:17:28.182Z,1.60
2022-08-03T13:19:56.448Z,0.80
2022-08-03T13:22:27.375Z,1.15
2022-08-03T13:24:56.664Z,2.45
2022-08-03T13:28:03.619Z,4.93
2022-08-03T13:30:16.604Z,2.10
2022-08-03T13:32:55.858Z,4.95
2022-08-03T13:35:24.929Z,11.35
2022-08-03T13:37:53.519Z,3.17
2022-08-03T13:40:23.793Z,2.05
2022-08-03T13:42:58.182Z,3.17
2022-08-03T13:45:27.490Z,2.58
2022-08-03T13:47:55.074Z,1.45
2022-08-03T13:50:22.631Z,2.50
2022-08-03T13:52:50.164Z,2.88
2022-08-03T13:55:17.710Z,5.43
2022-08-03T13:58:03.904Z,1.52
2022-08-03T14:00:34.499Z,3.30
2022-08-03T14:03:10.767Z,1.25
2022-08-03T14:05:42.616Z,2.30
2022-08-03T14:08:11.777Z,2.80
2022-08-03T14:10:43.414Z,2.17
2022-08-03T14:13:17.712Z,1.50
2022-08-03T14:15:49.997Z,2.92
2022-08-03T14:18:29.223Z,1.40
2022-08-03T14:21:07.486Z,4.80
2022-08-03T14:23:37.732Z,1.80
2022-08-03T14:26:09.838Z,1.70
2022-08-03T14:28:37.745Z,1.63
2022-08-03T14:31:08.560Z,2.47
2022-08-03T14:33:53.155Z,3.78
2022-08-03T14:36:21.438Z,1.98
2022-08-03T14:38:50.041Z,2.55
2022-08-03T14:41:19.827Z,4.93
2022-08-03T14:44:00.579Z,3.03
2022-08-03T14:46:32.318Z,2.55
2022-08-03T14:50:28.431Z,1.80
2022-08-03T14:51:53.315Z,2.45
2022-08-03T14:54:23.006Z,3.28
2022-08-03T14:56:51.530Z,6.40
2022-08-03T14:59:19.714Z,2.97
2022-08-03T15:02:02.256Z,4.32
2022-08-03T15:04:32.203Z,2.38
2022-08-03T15:07:00.594Z,4.07
2022-08-03T15:09:29.039Z,3.70
2022-08-03T15:11:56.625Z,4.18
2022-08-03T15:14:32.236Z,2.80
2022-08-03T15:17:01.346Z,3.47
2022-08-03T15:20:02.797Z,2.97
2022-08-03T15:22:19.046Z,4.57
2022-08-03T15:24:49.191Z,3.47
2022-08-03T15:27:16.870Z,4.35
2022-08-03T15:30:06.671Z,2.47
2022-08-03T15:32:34.480Z,4.72
2022-08-03T15:35:02.631Z,7.22
2022-08-03T15:37:30.825Z,3.03
2022-08-03T15:40:00.929Z,1.92
2022-08-03T15:42:30.103Z,3.58
2022-08-03T15:44:59.436Z,3.70
2022-08-03T15:47:27.805Z,4.35
2022-08-03T15:49:55.526Z,3.38
2022-08-03T15:52:23.964Z,4.15
2022-08-03T15:54:52.236Z,6.07
2022-08-03T15:57:21.034Z,4.75
2022-08-03T15:59:48.886Z,3.05
2022-08-03T16:02:17.859Z,5.97
2022-08-03T16:04:46.742Z,3.85
2022-08-03T16:07:15.913Z,4.22
2022-08-03T16:09:44.008Z,4.43
2022-08-03T16:12:16.114Z,3.28
2022-08-03T16:14:52.907Z,4.20
2022-08-03T16:17:22.643Z,4.60
2022-08-03T16:19:50.982Z,4.53
2022-08-03T16:22:23.776Z,5.72
2022-08-03T16:24:53.697Z,2.35
2022-08-03T16:28:00.384Z,4.45
2022-08-03T16:30:16.673Z,5.75
2022-08-03T16:32:45.333Z,4.93
2022-08-03T16:35:19.703Z,5.20
2022-08-03T16:37:54.576Z,5.30
2022-08-03T16:40:24.910Z,4.47
2022-08-03T16:42:53.205Z,3.90
2022-08-03T16:45:20.185Z,2.45
2022-08-03T16:48:01.285Z,3.95
2022-08-03T16:50:32.629Z,6.78
2022-08-03T16:53:00.284Z,3.15
2022-08-03T16:55:48.715Z,3.33
2022-08-03T16:58:17.928Z,4.60
2022-08-03T17:00:52.955Z,5.43
2022-08-03T17:03:24.456Z,5.07
2022-08-03T17:05:52.237Z,3.65
2022-08-03T17:08:26.939Z,5.38
2022-08-03T17:10:56.181Z,3.47
2022-08-03T17:13:38.787Z,5.90
2022-08-03T17:16:10.491Z,4.65
2022-08-03T17:18:51.236Z,4.00
2022-08-03T17:21:26.341Z,5.05
2022-08-03T17:24:03.194Z,5.38
2022-08-03T17:26:32.960Z,6.97
2022-08-03T17:29:12.508Z,8.75
2022-08-03T17:31:49.138Z,3.63
2022-08-03T17:34:19.602Z,4.63
2022-08-03T17:37:05.657Z,5.30
2022-08-03T17:39:57.734Z,3.28
2022-08-03T17:42:31.124Z,3.75
2022-08-03T17:45:03.977Z,3.28
2022-08-03T17:47:42.799Z,3.63
2022-08-03T17:50:25.076Z,2.90
2022-08-03T17:53:07.138Z,6.45
2022-08-03T17:55:55.170Z,5.13
2022-08-03T17:58:38.025Z,7.13
2022-08-03T18:01:59.567Z,4.85
2022-08-03T18:04:29.741Z,4.90
2022-08-03T18:07:00.432Z,5.50
2022-08-03T18:10:11.608Z,4.85
2022-08-03T18:12:48.034Z,4.70
2022-08-03T18:15:34.819Z,4.43
2022-08-03T18:18:10.475Z,5.38
2022-08-03T18:20:41.913Z,4.72
2022-08-03T18:23:24.922Z,4.93
2022-08-03T18:26:01.890Z,3.45
2022-08-03T18:28:30.958Z,6.18
2022-08-03T18:34:18.153Z,4.88
2022-08-03T18:36:39.238Z,4.53
2022-08-03T18:39:10.925Z,4.57
2022-08-03T18:41:44.583Z,3.33
2022-08-03T18:44:37.682Z,5.25
2022-08-03T18:47:52.291Z,4.53
2022-08-03T18:50:34.641Z,5.00
2022-08-03T18:54:03.339Z,4.47
2022-08-03T18:56:32.746Z,6.95
2022-08-03T18:59:02.451Z,5.15
2022-08-03T19:02:00.322Z,7.75
2022-08-03T19:04:44.241Z,4.95
2022-08-03T19:07:18.301Z,4.20
2022-08-03T19:09:58.656Z,6.47
2022-08-03T19:12:42.403Z,5.35
2022-08-03T19:15:15.792Z,4.53
2022-08-03T19:17:53.279Z,5.10
2022-08-03T19:20:25.184Z,6.55
2022-08-03T19:22:55.644Z,7.80
2022-08-03T19:25:33.352Z,6.28
2022-08-03T19:28:08.830Z,4.68
2022-08-03T19:30:46.501Z,8.05
2022-08-03T19:33:26.465Z,3.85
2022-08-03T19:35:58.701Z,9.98
2022-08-03T19:38:29.777Z,6.68
2022-08-03T19:41:01.334Z,6.28
2022-08-03T19:43:49.537Z,4.47
2022-08-03T19:46:27.737Z,7.97
2022-08-03T19:49:20.275Z,6.13
2022-08-03T19:52:01.797Z,4.65
2022-08-03T19:54:53.643Z,5.88
2022-08-03T19:57:27.378Z,4.88
2022-08-03T19:59:56.963Z,6.28
2022-08-03T20:02:27.211Z,4.63
2022-08-03T20:05:00.067Z,4.60
2022-08-03T20:07:30.717Z,6.00
2022-08-03T20:10:02.494Z,4.90
2022-08-03T20:12:39.163Z,4.82
2022-08-03T20:15:07.358Z,4.03
2022-08-03T20:17:56.546Z,4.60
2022-08-03T20:20:30.364Z,6.10
2022-08-03T20:22:59.706Z,4.88
2022-08-03T20:25:38.137Z,3.10
2022-08-03T20:28:14.555Z,4.80
2022-08-03T20:30:47.508Z,4.45
2022-08-03T20:33:18.580Z,4.57
2022-08-03T20:35:49.676Z,6.15
2022-08-03T20:38:19.230Z,4.75
2022-08-03T20:40:48.410Z,6.00
2022-08-03T20:43:19.971Z,6.50
2022-08-03T20:45:59.918Z,5.53
2022-08-03T20:48:39.586Z,5.25
2022-08-03T20:51:19.527Z,5.20
2022-08-03T20:53:59.537Z,4.38
2022-08-03T20:56:34.963Z,6.10
2022-08-03T20:59:04.532Z,5.07
2022-08-03T21:01:37.256Z,7.03
2022-08-03T21:04:09.268Z,4.57
2022-08-03T21:06:53.209Z,10.00
2022-08-03T21:09:33.430Z,3.88
2022-08-03T21:12:15.477Z,4.80
2022-08-03T21:12:58.149Z,5.85
2022-08-03T21:15:06.090Z,7.20
2022-08-03T21:17:40.847Z,4.75
2022-08-03T21:20:12.037Z,5.18
2022-08-03T21:22:42.788Z,4.57
2022-08-03T21:25:10.358Z,4.97
2022-08-03T21:27:37.599Z,6.32
2022-08-03T21:30:09.318Z,5.43
2022-08-03T21:32:40.343Z,6.95
2022-08-03T21:35:10.684Z,4.80
2022-08-03T21:37:39.804Z,6.40
2022-08-03T21:40:09.485Z,7.35
2022-08-03T21:42:41.586Z,3.78
2022-08-03T21:45:17.042Z,4.85
2022-08-03T21:47:47.031Z,5.95
2022-08-03T21:50:16.753Z,5.03
2022-08-03T21:52:47.077Z,4.32
2022-08-03T21:55:20.648Z,5.65
2022-08-03T21:57:53.620Z,4.00
2022-08-03T22:00:23.721Z,5.72
2022-08-03T22:02:55.369Z,5.28
2022-08-03T22:05:42.432Z,6.43
2022-08-03T22:08:13.770Z,6.45
2022-08-03T22:10:43.627Z,8.95
2022-08-03T22:13:42.854Z,5.47
2022-08-03T22:16:07.346Z,5.40
2022-08-03T22:18:42.249Z,6.57
2022-08-03T22:21:12.568Z,5.95
2022-08-03T22:23:47.906Z,3.03
2022-08-03T22:26:32.615Z,7.22
2022-08-03T22:29:07.578Z,5.82
2022-08-03T22:31:58.171Z,4.88
2022-08-03T22:34:27.184Z,9.88
2022-08-03T22:37:00.351Z,7.28
2022-08-03T22:39:29.769Z,5.70
2022-08-03T22:41:59.187Z,4.18
2022-08-03T22:44:27.891Z,4.10
2022-08-03T22:46:55.568Z,8.05
2022-08-03T22:49:24.461Z,4.28
2022-08-03T22:51:54.209Z,4.88
2022-08-03T22:54:22.890Z,5.75
2022-08-03T22:56:51.510Z,4.15
2022-08-03T22:59:39.112Z,5.25
2022-08-03T23:02:20.711Z,5.03
2022-08-03T23:04:55.059Z,5.15
2022-08-03T23:07:30.215Z,5.03
2022-08-03T23:09:58.155Z,6.68
2022-08-03T23:12:26.926Z,8.02
2022-08-03T23:15:00.190Z,5.50
2022-08-03T23:17:33.350Z,4.63
2022-08-03T23:20:07.051Z,4.90
2022-08-03T23:22:35.583Z,4.82
2022-08-03T23:25:04.765Z,10.65
2022-08-03T23:27:34.213Z,6.40
2022-08-03T23:30:02.732Z,4.50
2022-08-03T23:32:31.174Z,7.90
2022-08-03T23:35:20.425Z,6.82
2022-08-03T23:38:10.818Z,5.53
2022-08-03T23:40:42.566Z,5.00
2022-08-03T23:43:13.352Z,8.10
2022-08-03T23:45:49.220Z,5.63
2022-08-03T23:48:17.207Z,4.95
2022-08-03T23:50:47.748Z,4.35
2022-08-03T23:53:34.046Z,6.07
2022-08-03T23:56:33.649Z,4.55
2022-08-03T23:59:33.951Z,4.35
